Winslow Lindbergh Regional Airport
KINW : now visible

Airfield :











YOU CAN JOIN US ON...

 
LOGIN :

Register | Disclaimer

   EN    FR    IT 

 









Legend :    VFR   Marginal VFR   IFR   Intensive IFR   Very Intensive IFR
Visi :
Ceiling :
>= 8 km
>= 3000ft
5 to 8 km
1000 to 3000 ft
1500m to 5 km
500 to 1000 ft
800 to 1500m
200 to 500 ft
< 800m
< 200 ft
Symbols :   Thunderstorms  Fog  Heavy snow  Heavy precipitations  Wind > 20 kt






- Airport Elevation : 4941 ft


KINW - Winslow Lindbergh Regional

CURRENT METAR :
  • 100456Z AUTO 20010KT 10SM CLR 17/M06 A2996 RMK AO2 SLP085 T01671061 TSNO

EXPIRED METARs :
  • 100356Z AUTO 21011KT 10SM CLR 18/M06 A2994 RMK AO2 SLP080 T01831056 TSNO
  • 100256Z AUTO 23013KT 10SM CLR 21/M06 A2992 RMK AO2 SLP072 T02061056 53010 TSNO

TAF KINW
Valid from the 10 at 00:00 until the 11 at 00:00 UTC


092335Z 1000/1024 25015G25KT P6SM SCT120
FM100300 24010KT P6SM SKC
FM101800 22020G30KT P6SM FEW120
KZAB FIR / North America



MET'MAP, your aeronautical weather chart ! - Copyright ORBIFLY December 2007 - Disclaimer

ORBIFLY MET'MAP TEAM :

Programming & Development : Alexandra Zaïnal
Concept & original design : Baudouin d'Aumeries
Assistance for programming : Marc-Olivier Méhu
Technical & hardware support : Manuel Goepfert

Contact : metmap@orbifly.com




SOURCES & CREDITS :

   NOAA       Earth
Advisory